Kezdőlap
METAR-TAF:

METAR-TAF

Repülőterek :

Agri-Science Center

Chillicothe, Missouri, Amerikai Egyesült Államok

földrajzi szélesség: 39-49N, földrajzi hosszúság: 093-35W, magasság: 234 m

Jelenlegi meteorológiai megfigyelések

A jelentés 53 perccel ezelõtt készült, 10:52 UTC
Szélcsend
Hőmérséklet 21°C
Páratartalom 88%
Légköri nyomás 1016 hPa

METAR: KCDJ 061052Z AUTO 00000KT 21/19 A3001 RMK AO1 SLP148 T02060194

Idő: 06:45 (11:45 UTC)


TAF: hiányzik

Meteorológiai megfigyelések és előrejelzések több, mint 4000 repülőtéren (METAR és TAF jelentéseket).

A térképen piros és sárga pontok jelzik az elérhető meteorológiai állomásokat.

Mozgassa az egeret a pont fölött, hogy megjelenjen az állomás neve.

Azután kattintson az időjárási megfigyelések és előrejelzések megtekintéséhez.

A térkép megváltoztatása: kattintson a fekete keresztel jelölt zöld gombra ráközelítéshez, a vonallal jelölt zöld gombra távolításhoz, vagy a zöld nyilakra a szomszédos térképek eléréséhez.


METAR-TAF: